createdAt,value
2019-05-01T00:00:16.344Z,11.70
2019-05-01T00:01:08.796Z,11.70
2019-05-01T00:02:05.782Z,11.71
2019-05-01T00:03:03.491Z,11.65
2019-05-01T00:04:09.320Z,11.62
2019-05-01T00:05:03.605Z,11.62
2019-05-01T00:05:42.027Z,11.73
2019-05-01T00:06:22.282Z,11.74
2019-05-01T00:07:00.052Z,11.68
2019-05-01T00:07:36.719Z,11.62
2019-05-01T00:08:12.667Z,11.54
2019-05-01T00:08:48.465Z,11.59
2019-05-01T00:09:24.941Z,11.56
2019-05-01T00:10:01.057Z,11.62
2019-05-01T00:10:37.063Z,11.57
2019-05-01T00:11:12.523Z,11.60
2019-05-01T00:11:48.150Z,11.60
2019-05-01T00:12:23.694Z,11.57
2019-05-01T00:12:59.572Z,11.56
2019-05-01T00:13:35.389Z,11.57
2019-05-01T00:14:11.880Z,11.57
2019-05-01T00:14:47.774Z,11.57
2019-05-01T00:15:25.843Z,11.57
2019-05-01T00:16:01.340Z,11.53
2019-05-01T00:16:36.810Z,11.53
2019-05-01T00:17:13.034Z,11.42
2019-05-01T00:17:48.805Z,11.42
2019-05-01T00:18:24.408Z,11.38
2019-05-01T00:19:00.018Z,11.38
2019-05-01T00:19:35.774Z,11.39
2019-05-01T00:20:11.632Z,11.34
2019-05-01T00:20:47.214Z,11.34
2019-05-01T00:21:22.820Z,11.33
2019-05-01T00:21:58.262Z,11.35
2019-05-01T00:22:33.813Z,11.35
2019-05-01T00:23:09.287Z,11.34
2019-05-01T00:23:44.836Z,11.34
2019-05-01T00:24:20.629Z,11.32
2019-05-01T00:24:56.471Z,11.34
2019-05-01T00:25:31.936Z,11.31
2019-05-01T00:26:07.475Z,11.28
2019-05-01T00:26:43.707Z,11.28
2019-05-01T00:27:19.428Z,11.27
2019-05-01T00:27:55.294Z,11.29
2019-05-01T00:28:30.898Z,11.28
2019-05-01T00:29:06.488Z,11.23
2019-05-01T00:29:41.953Z,11.23
2019-05-01T00:30:29.878Z,11.30
2019-05-01T00:30:57.309Z,11.27
2019-05-01T00:31:32.853Z,11.24
2019-05-01T00:32:08.511Z,11.24
2019-05-01T00:32:44.118Z,11.28
2019-05-01T00:33:19.671Z,11.29
2019-05-01T00:33:55.153Z,11.29
2019-05-01T00:34:30.681Z,11.27
2019-05-01T00:35:06.137Z,11.29
2019-05-01T00:35:41.621Z,11.32
2019-05-01T00:36:17.081Z,11.29
2019-05-01T00:36:52.965Z,11.27
2019-05-01T00:37:28.804Z,11.27
2019-05-01T00:38:04.284Z,11.34
2019-05-01T00:38:40.125Z,11.34
2019-05-01T00:39:16.928Z,11.33
2019-05-01T00:39:52.533Z,11.32
2019-05-01T00:40:28.020Z,11.23
2019-05-01T00:41:03.521Z,11.23
2019-05-01T00:41:39.083Z,11.24
2019-05-01T00:42:14.966Z,11.20
2019-05-01T00:42:50.487Z,11.15
2019-05-01T00:43:26.004Z,10.89
2019-05-01T00:44:02.261Z,11.10
2019-05-01T00:44:37.846Z,11.08
2019-05-01T00:45:13.621Z,11.03
2019-05-01T00:45:49.379Z,11.03
2019-05-01T00:46:24.910Z,10.99
2019-05-01T00:47:00.529Z,10.98
2019-05-01T00:47:36.100Z,10.97
2019-05-01T00:48:11.821Z,10.97
2019-05-01T00:48:47.612Z,10.97
2019-05-01T00:49:23.264Z,10.95
2019-05-01T00:49:59.515Z,10.91
2019-05-01T00:50:35.726Z,10.92
2019-05-01T00:51:11.315Z,10.85
2019-05-01T00:51:46.805Z,10.89
2019-05-01T00:52:22.975Z,10.91
2019-05-01T00:52:58.946Z,10.90
2019-05-01T00:53:34.401Z,10.91
2019-05-01T00:54:09.904Z,10.85
2019-05-01T00:54:47.929Z,10.89
2019-05-01T00:55:41.192Z,10.87
2019-05-01T00:56:38.645Z,10.87
2019-05-01T00:57:27.431Z,10.91
2019-05-01T00:58:20.781Z,10.95
2019-05-01T00:59:21.251Z,10.96
2019-05-01T01:00:09.039Z,10.96
2019-05-01T01:01:00.597Z,10.88
2019-05-01T01:01:54.092Z,10.82
2019-05-01T01:02:36.482Z,10.85
2019-05-01T01:03:11.944Z,10.84
2019-05-01T01:03:47.511Z,10.82
2019-05-01T01:04:23.796Z,10.75
2019-05-01T01:04:59.804Z,10.85
2019-05-01T01:05:35.327Z,10.85
2019-05-01T01:06:11.183Z,10.79
2019-05-01T01:06:46.644Z,10.80
2019-05-01T01:07:22.237Z,10.85
2019-05-01T01:07:57.700Z,10.82
2019-05-01T01:08:33.472Z,10.77
2019-05-01T01:09:09.407Z,10.73
2019-05-01T01:09:45.424Z,10.70
2019-05-01T01:10:20.894Z,10.64
2019-05-01T01:10:56.454Z,10.71
2019-05-01T01:11:31.918Z,10.66
2019-05-01T01:12:07.389Z,10.66
2019-05-01T01:12:43.557Z,10.61
2019-05-01T01:13:19.105Z,10.70
2019-05-01T01:13:54.666Z,10.70
2019-05-01T01:14:30.608Z,10.60
2019-05-01T01:15:07.162Z,10.60
2019-05-01T01:15:42.615Z,10.60
2019-05-01T01:16:18.438Z,10.59
2019-05-01T01:16:54.016Z,10.56
2019-05-01T01:17:29.523Z,10.55
2019-05-01T01:18:05.317Z,10.53
2019-05-01T01:18:41.068Z,10.52
2019-05-01T01:19:16.543Z,10.51
2019-05-01T01:19:52.152Z,10.50
2019-05-01T01:20:27.664Z,10.54
2019-05-01T01:21:03.117Z,10.52
2019-05-01T01:21:38.939Z,10.53
2019-05-01T01:22:14.990Z,10.50
2019-05-01T01:22:50.707Z,10.49
2019-05-01T01:23:26.930Z,10.44
2019-05-01T01:24:04.686Z,10.43
2019-05-01T01:24:40.163Z,10.46
2019-05-01T01:25:16.263Z,10.44
2019-05-01T01:25:51.821Z,10.43
2019-05-01T01:26:27.308Z,10.41
2019-05-01T01:27:03.298Z,10.44
2019-05-01T01:27:39.344Z,10.46
2019-05-01T01:28:14.798Z,10.48
2019-05-01T01:28:50.384Z,10.46
2019-05-01T01:29:26.313Z,10.45
2019-05-01T01:30:02.188Z,10.41
2019-05-01T01:30:38.021Z,10.38
2019-05-01T01:31:13.562Z,10.39
2019-05-01T01:31:49.045Z,10.44
2019-05-01T01:32:24.801Z,10.44
2019-05-01T01:33:00.427Z,10.38
2019-05-01T01:33:36.153Z,10.43
2019-05-01T01:34:11.617Z,10.44
2019-05-01T01:34:47.073Z,10.41
2019-05-01T01:35:23.033Z,10.43
2019-05-01T01:35:58.879Z,10.43
2019-05-01T01:36:34.337Z,10.43
2019-05-01T01:37:09.864Z,10.38
2019-05-01T01:37:45.637Z,10.24
2019-05-01T01:38:21.582Z,10.24
2019-05-01T01:38:57.139Z,10.27
2019-05-01T01:39:33.050Z,10.24
2019-05-01T01:40:08.985Z,10.23
2019-05-01T01:40:44.933Z,10.18
2019-05-01T01:41:22.669Z,10.20
2019-05-01T01:41:58.258Z,10.27
2019-05-01T01:42:33.921Z,10.34
2019-05-01T01:43:27.208Z,10.35
2019-05-01T01:44:28.438Z,10.29
2019-05-01T01:45:41.375Z,10.26
2019-05-01T01:46:19.193Z,10.28
2019-05-01T01:46:55.729Z,10.24
2019-05-01T01:47:31.614Z,10.15
2019-05-01T01:48:12.449Z,10.16
2019-05-01T01:48:48.802Z,10.28
2019-05-01T01:49:24.339Z,10.21
2019-05-01T01:50:00.381Z,10.23
2019-05-01T01:50:35.975Z,10.20
2019-05-01T01:51:12.105Z,10.15
2019-05-01T01:51:47.558Z,10.13
2019-05-01T01:52:23.850Z,10.12
2019-05-01T01:52:59.477Z,10.10
2019-05-01T01:53:34.954Z,10.15
2019-05-01T01:54:10.853Z,10.13
2019-05-01T01:54:46.871Z,10.12
2019-05-01T01:55:22.976Z,10.11
2019-05-01T01:55:58.684Z,10.08
2019-05-01T01:56:34.624Z,10.08
2019-05-01T01:57:10.285Z,10.11
2019-05-01T01:57:46.251Z,10.12
2019-05-01T01:58:23.181Z,10.13
2019-05-01T01:58:59.942Z,10.25
2019-05-01T01:59:35.923Z,10.23
2019-05-01T02:00:13.072Z,10.19
2019-05-01T02:01:09.731Z,10.16
2019-05-01T02:02:06.290Z,10.17
2019-05-01T02:02:48.231Z,10.16
2019-05-01T02:03:24.637Z,10.13
2019-05-01T02:04:04.394Z,10.09
2019-05-01T02:04:57.904Z,10.06
2019-05-01T02:05:36.763Z,10.05
2019-05-01T02:06:12.754Z,10.14
2019-05-01T02:06:49.822Z,10.13
2019-05-01T02:07:25.645Z,10.14
2019-05-01T02:08:01.424Z,10.08
2019-05-01T02:08:36.874Z,10.06
2019-05-01T02:09:12.751Z,10.01
2019-05-01T02:09:48.243Z,10.00
2019-05-01T02:10:23.974Z,9.97
2019-05-01T02:10:59.861Z,9.98
2019-05-01T02:11:35.414Z,10.06
2019-05-01T02:12:11.156Z,10.05
2019-05-01T02:12:46.899Z,10.05
2019-05-01T02:13:22.387Z,10.07
2019-05-01T02:13:59.028Z,10.05
2019-05-01T02:14:34.515Z,10.01
2019-05-01T02:15:10.574Z,10.06
2019-05-01T02:15:46.349Z,10.11
2019-05-01T02:16:22.270Z,10.16
2019-05-01T02:16:57.760Z,10.07
2019-05-01T02:17:33.226Z,10.00
2019-05-01T02:18:08.786Z,9.94
2019-05-01T02:18:44.549Z,9.90
2019-05-01T02:19:20.982Z,9.88
2019-05-01T02:19:56.740Z,9.90
2019-05-01T02:20:32.787Z,9.97
2019-05-01T02:21:08.275Z,9.98
2019-05-01T02:21:43.726Z,9.91
2019-05-01T02:22:19.180Z,9.86
2019-05-01T02:22:55.034Z,9.83
2019-05-01T02:23:30.917Z,9.86
2019-05-01T02:24:06.350Z,9.83
2019-05-01T02:24:41.777Z,9.86
2019-05-01T02:25:17.601Z,9.82
2019-05-01T02:25:53.548Z,9.82
2019-05-01T02:26:31.336Z,9.91
2019-05-01T02:27:11.466Z,9.89
2019-05-01T02:28:06.635Z,9.93
2019-05-01T02:28:58.395Z,9.84
2019-05-01T02:29:39.899Z,9.84
2019-05-01T02:30:16.672Z,9.79
2019-05-01T02:31:08.102Z,9.86
2019-05-01T02:31:46.721Z,9.84
2019-05-01T02:32:24.571Z,9.81
2019-05-01T02:33:00.781Z,9.82
2019-05-01T02:33:37.368Z,9.99
2019-05-01T02:34:13.338Z,9.90
2019-05-01T02:34:49.815Z,9.86
2019-05-01T02:35:30.229Z,9.86
2019-05-01T02:36:04.975Z,9.83
2019-05-01T02:36:41.522Z,9.81
2019-05-01T02:37:18.369Z,9.77
2019-05-01T02:37:55.171Z,9.76
2019-05-01T02:38:32.920Z,9.75
2019-05-01T02:39:10.559Z,9.70
2019-05-01T02:39:49.258Z,9.71
2019-05-01T02:40:56.515Z,9.69
2019-05-01T02:41:35.731Z,9.68
2019-05-01T02:42:14.601Z,9.68
2019-05-01T02:42:51.789Z,9.71
2019-05-01T02:43:30.886Z,9.73
2019-05-01T02:44:10.789Z,9.69
2019-05-01T02:44:49.685Z,9.75
2019-05-01T02:45:26.830Z,9.68
2019-05-01T02:46:05.147Z,9.67
2019-05-01T02:46:42.939Z,9.77
2019-05-01T02:47:26.285Z,9.69
2019-05-01T02:48:02.465Z,9.67
2019-05-01T02:48:41.624Z,9.63
2019-05-01T02:49:25.278Z,9.62
2019-05-01T02:50:06.152Z,9.62
2019-05-01T02:50:43.020Z,9.68
2019-05-01T02:51:20.809Z,9.73
2019-05-01T02:51:56.678Z,9.83
2019-05-01T02:52:35.276Z,9.89
2019-05-01T02:53:11.095Z,9.85
2019-05-01T02:53:48.344Z,9.75
2019-05-01T02:54:24.158Z,9.75
2019-05-01T02:55:03.416Z,9.80
2019-05-01T02:55:44.969Z,9.71
2019-05-01T02:56:44.551Z,9.68
2019-05-01T02:57:24.723Z,9.66
2019-05-01T02:58:01.172Z,9.56
2019-05-01T02:58:37.168Z,9.51
2019-05-01T02:59:13.863Z,9.51
2019-05-01T02:59:52.742Z,9.58
2019-05-01T03:00:28.970Z,9.57
2019-05-01T03:01:04.492Z,9.58
2019-05-01T03:01:46.890Z,9.54
2019-05-01T03:02:19.131Z,9.52
2019-05-01T03:02:54.856Z,9.56
2019-05-01T03:03:30.366Z,9.52
2019-05-01T03:04:07.272Z,9.50
2019-05-01T03:04:44.050Z,9.45
2019-05-01T03:05:19.571Z,9.44
2019-05-01T03:05:55.133Z,9.42
2019-05-01T03:06:32.823Z,9.52
2019-05-01T03:07:10.181Z,9.56
2019-05-01T03:07:46.408Z,9.50
2019-05-01T03:08:22.477Z,9.48
2019-05-01T03:08:59.787Z,9.55
2019-05-01T03:09:36.340Z,9.53
2019-05-01T03:10:12.689Z,9.48
2019-05-01T03:10:48.137Z,9.41
2019-05-01T03:11:23.782Z,9.43
2019-05-01T03:12:00.465Z,9.42
2019-05-01T03:12:39.308Z,9.40
2019-05-01T03:13:15.273Z,9.43
2019-05-01T03:13:52.923Z,9.45
2019-05-01T03:14:31.392Z,9.42
2019-05-01T03:15:07.176Z,9.46
2019-05-01T03:15:42.988Z,9.46
2019-05-01T03:16:19.804Z,9.43
2019-05-01T03:16:59.215Z,9.47
2019-05-01T03:18:02.844Z,9.47
2019-05-01T03:18:43.014Z,9.42
2019-05-01T03:19:26.058Z,9.48
2019-05-01T03:20:20.185Z,9.45
2019-05-01T03:21:10.253Z,9.43
2019-05-01T03:22:04.528Z,9.48
2019-05-01T03:22:47.840Z,9.43
2019-05-01T03:23:46.463Z,9.53
2019-05-01T03:24:24.485Z,9.51
2019-05-01T03:25:01.236Z,9.44
2019-05-01T03:25:37.003Z,9.57
2019-05-01T03:26:12.674Z,9.64
2019-05-01T03:26:48.197Z,9.60
2019-05-01T03:27:24.011Z,9.53
2019-05-01T03:27:59.836Z,9.46
2019-05-01T03:28:35.542Z,9.49
2019-05-01T03:29:11.989Z,9.46
2019-05-01T03:29:47.560Z,9.39
2019-05-01T03:30:24.050Z,9.41
2019-05-01T03:30:59.780Z,9.34
2019-05-01T03:31:35.970Z,9.33
2019-05-01T03:32:18.637Z,9.35
2019-05-01T03:32:48.973Z,9.37
2019-05-01T03:33:24.879Z,9.41
2019-05-01T03:34:00.462Z,9.49
2019-05-01T03:34:36.124Z,9.43
2019-05-01T03:35:11.678Z,9.40
2019-05-01T03:35:47.131Z,9.36
2019-05-01T03:36:23.582Z,9.34
2019-05-01T03:37:00.197Z,9.37
2019-05-01T03:37:36.791Z,9.38
2019-05-01T03:38:13.586Z,9.36
2019-05-01T03:38:49.076Z,9.32
2019-05-01T03:39:25.328Z,9.29
2019-05-01T03:40:00.829Z,9.30
2019-05-01T03:40:37.453Z,9.30
2019-05-01T03:41:13.543Z,9.26
2019-05-01T03:41:49.735Z,9.21
2019-05-01T03:42:26.362Z,9.24
2019-05-01T03:43:02.382Z,9.25
2019-05-01T03:43:37.852Z,9.22
2019-05-01T03:44:13.517Z,9.22
2019-05-01T03:44:48.970Z,9.24
2019-05-01T03:45:25.395Z,9.22
2019-05-01T03:46:00.913Z,9.26
2019-05-01T03:46:37.200Z,9.26
2019-05-01T03:47:12.866Z,9.30
2019-05-01T03:47:49.015Z,9.28
2019-05-01T03:48:26.179Z,9.27
2019-05-01T03:49:02.069Z,9.28
2019-05-01T03:49:38.546Z,9.28
2019-05-01T03:50:14.302Z,9.26
2019-05-01T03:50:49.977Z,9.31
2019-05-01T03:51:25.930Z,9.31
2019-05-01T03:52:02.390Z,9.30
2019-05-01T03:52:38.619Z,9.29
2019-05-01T03:53:14.660Z,9.31
2019-05-01T03:53:50.276Z,9.33
2019-05-01T03:54:26.176Z,9.33
2019-05-01T03:55:02.004Z,9.31
2019-05-01T03:55:37.960Z,9.31
2019-05-01T03:56:14.360Z,9.31
2019-05-01T03:56:50.110Z,9.36
2019-05-01T03:57:26.027Z,9.36
2019-05-01T03:58:01.838Z,9.31
2019-05-01T03:58:37.800Z,9.31
2019-05-01T03:59:13.330Z,9.29
2019-05-01T03:59:49.065Z,9.29
2019-05-01T04:00:35.821Z,9.30
2019-05-01T04:01:29.296Z,9.29
2019-05-01T04:02:31.755Z,9.30
2019-05-01T04:03:08.551Z,9.32
2019-05-01T04:03:56.112Z,9.32
2019-05-01T04:04:32.340Z,9.28
2019-05-01T04:05:07.912Z,9.28
2019-05-01T04:05:44.502Z,9.26
2019-05-01T04:06:21.116Z,9.20
2019-05-01T04:06:56.973Z,9.20
2019-05-01T04:07:36.219Z,9.20
2019-05-01T04:08:10.299Z,9.24
2019-05-01T04:08:46.681Z,9.20
2019-05-01T04:09:23.102Z,9.22
2019-05-01T04:09:59.181Z,9.19
2019-05-01T04:10:34.637Z,9.19
2019-05-01T04:11:10.510Z,9.25
2019-05-01T04:11:46.869Z,9.25
2019-05-01T04:12:23.233Z,9.22
2019-05-01T04:12:59.085Z,9.23
2019-05-01T04:13:34.733Z,9.24
2019-05-01T04:14:11.006Z,9.22
2019-05-01T04:14:47.058Z,9.26
2019-05-01T04:15:22.859Z,9.26
2019-05-01T04:15:58.828Z,9.28
2019-05-01T04:16:34.951Z,9.27
2019-05-01T04:17:20.181Z,9.27
2019-05-01T04:18:32.177Z,9.29
2019-05-01T04:19:08.232Z,9.29
2019-05-01T04:19:44.528Z,9.37
2019-05-01T04:20:20.165Z,9.37
2019-05-01T04:20:56.532Z,9.32
2019-05-01T04:21:38.948Z,9.39
2019-05-01T04:22:15.012Z,9.39
2019-05-01T04:22:50.968Z,9.46
2019-05-01T04:23:26.703Z,9.46
2019-05-01T04:24:02.841Z,9.43
2019-05-01T04:24:38.296Z,9.49
2019-05-01T04:25:14.469Z,9.49
2019-05-01T04:25:50.232Z,9.49
2019-05-01T04:26:26.226Z,9.50
2019-05-01T04:27:02.877Z,9.40
2019-05-01T04:27:41.502Z,9.40
2019-05-01T04:28:33.381Z,9.43
2019-05-01T04:29:30.845Z,9.44
2019-05-01T04:30:17.454Z,9.51
2019-05-01T04:31:05.544Z,9.50
2019-05-01T04:31:45.703Z,9.50
2019-05-01T04:32:24.030Z,9.55
2019-05-01T04:33:01.876Z,9.55
2019-05-01T04:33:38.165Z,9.51
2019-05-01T04:34:31.731Z,9.51
2019-05-01T04:35:26.814Z,9.49
2019-05-01T04:36:08.032Z,9.49
2019-05-01T04:36:46.047Z,9.54
2019-05-01T04:37:22.160Z,9.55
2019-05-01T04:37:58.996Z,9.52
2019-05-01T04:38:35.482Z,9.52
2019-05-01T04:39:11.447Z,9.52
2019-05-01T04:39:47.455Z,9.53
2019-05-01T04:40:23.648Z,9.54
2019-05-01T04:40:59.167Z,9.51
2019-05-01T04:41:35.974Z,9.51
2019-05-01T04:42:12.424Z,9.57
2019-05-01T04:42:48.021Z,9.60
2019-05-01T04:43:23.592Z,9.61
2019-05-01T04:43:59.414Z,9.57
2019-05-01T04:44:34.904Z,9.61
2019-05-01T04:45:10.646Z,9.62
2019-05-01T04:45:46.651Z,9.64
2019-05-01T04:46:22.131Z,9.64
2019-05-01T04:46:58.812Z,9.67
2019-05-01T04:47:34.891Z,9.70
2019-05-01T04:48:10.594Z,9.70
2019-05-01T04:48:46.050Z,9.70
2019-05-01T04:49:21.536Z,9.68
2019-05-01T04:49:57.508Z,9.68
2019-05-01T04:50:32.988Z,9.71
2019-05-01T04:51:09.433Z,9.71
2019-05-01T04:51:46.791Z,9.70
2019-05-01T04:52:22.526Z,9.73
2019-05-01T04:52:59.152Z,9.73
2019-05-01T04:53:35.772Z,9.73
2019-05-01T04:54:11.220Z,9.75
2019-05-01T04:54:47.312Z,9.78
2019-05-01T04:55:23.905Z,9.78
2019-05-01T04:56:00.035Z,9.79
2019-05-01T04:56:35.479Z,9.89
2019-05-01T04:57:11.139Z,9.87
2019-05-01T04:57:47.086Z,9.86
2019-05-01T04:58:22.697Z,9.86
2019-05-01T04:58:58.587Z,9.83
2019-05-01T04:59:34.507Z,9.86
2019-05-01T05:00:10.099Z,9.89
2019-05-01T05:00:45.571Z,9.88
2019-05-01T05:01:21.318Z,9.91
2019-05-01T05:01:59.048Z,9.88
2019-05-01T05:02:43.799Z,9.88
2019-05-01T05:03:20.528Z,9.90
2019-05-01T05:03:56.267Z,9.90
2019-05-01T05:04:32.257Z,9.90
2019-05-01T05:05:08.225Z,9.93
2019-05-01T05:05:44.384Z,10.07
2019-05-01T05:06:21.162Z,10.02
2019-05-01T05:06:56.889Z,9.96
2019-05-01T05:07:32.843Z,9.96
2019-05-01T05:08:08.293Z,9.93
2019-05-01T05:08:44.053Z,9.92
2019-05-01T05:09:21.373Z,9.89
2019-05-01T05:09:57.228Z,9.90
2019-05-01T05:10:33.304Z,9.88
2019-05-01T05:11:14.052Z,9.88
2019-05-01T05:11:55.218Z,9.93
2019-05-01T05:12:50.098Z,9.97
2019-05-01T05:13:27.909Z,9.97
2019-05-01T05:14:14.681Z,9.98
2019-05-01T05:14:53.916Z,9.92
2019-05-01T05:15:50.184Z,9.91
2019-05-01T05:16:51.892Z,9.97
2019-05-01T05:17:27.896Z,9.97
2019-05-01T05:18:04.136Z,9.97
2019-05-01T05:18:39.942Z,9.97
2019-05-01T05:19:16.174Z,9.98
2019-05-01T05:19:51.805Z,10.00
2019-05-01T05:20:28.239Z,10.02
2019-05-01T05:21:03.823Z,10.03
2019-05-01T05:21:39.257Z,10.03
2019-05-01T05:22:16.637Z,10.09
2019-05-01T05:22:52.805Z,10.12
2019-05-01T05:23:28.405Z,10.15
2019-05-01T05:24:04.053Z,10.13
2019-05-01T05:24:39.783Z,10.14
2019-05-01T05:25:15.573Z,10.14
2019-05-01T05:25:51.831Z,10.16
2019-05-01T05:26:27.823Z,10.22
2019-05-01T05:27:03.760Z,10.21
2019-05-01T05:27:40.831Z,10.21
2019-05-01T05:28:16.864Z,10.26
2019-05-01T05:28:53.202Z,10.30
2019-05-01T05:29:29.348Z,10.33
2019-05-01T05:30:05.336Z,10.32
2019-05-01T05:30:44.245Z,10.33
2019-05-01T05:31:23.104Z,10.35
2019-05-01T05:32:01.297Z,10.34
2019-05-01T05:32:39.845Z,10.39
2019-05-01T05:33:18.985Z,10.41
2019-05-01T05:33:56.210Z,10.36
2019-05-01T05:34:32.710Z,10.46
2019-05-01T05:35:09.565Z,10.49
2019-05-01T05:35:46.986Z,10.47
2019-05-01T05:36:25.857Z,10.47
2019-05-01T05:37:09.331Z,10.52
2019-05-01T05:38:05.496Z,10.54
2019-05-01T05:38:54.055Z,10.65
2019-05-01T05:39:35.752Z,10.65
2019-05-01T05:40:11.611Z,10.65
2019-05-01T05:40:47.572Z,10.65
2019-05-01T05:41:24.056Z,10.68
2019-05-01T05:42:01.406Z,10.80
2019-05-01T05:42:37.919Z,10.78
2019-05-01T05:43:13.515Z,10.78
2019-05-01T05:43:50.216Z,10.77
2019-05-01T05:44:26.665Z,10.78
2019-05-01T05:45:03.198Z,10.79
2019-05-01T05:45:38.922Z,10.82
2019-05-01T05:46:14.728Z,10.90
2019-05-01T05:46:50.553Z,10.88
2019-05-01T05:47:26.928Z,10.90
2019-05-01T05:48:02.623Z,10.99
2019-05-01T05:48:38.186Z,11.00
2019-05-01T05:49:14.209Z,10.96
2019-05-01T05:49:49.633Z,10.96
2019-05-01T05:50:27.236Z,11.03
2019-05-01T05:51:21.849Z,11.07
2019-05-01T05:52:11.686Z,11.03
2019-05-01T05:52:54.036Z,10.98
2019-05-01T05:53:33.818Z,11.03
2019-05-01T05:54:28.572Z,11.10
2019-05-01T05:55:25.303Z,11.12
2019-05-01T05:56:05.335Z,11.19
2019-05-01T05:56:49.186Z,11.15
2019-05-01T05:57:33.442Z,11.18
2019-05-01T05:58:21.024Z,11.23
2019-05-01T05:59:01.387Z,11.23
2019-05-01T05:59:41.795Z,11.25
2019-05-01T06:00:42.368Z,11.28
2019-05-01T06:01:33.799Z,11.34
2019-05-01T06:02:30.673Z,11.40
2019-05-01T06:03:31.357Z,11.43
2019-05-01T06:04:26.646Z,11.43
2019-05-01T06:05:30.781Z,11.47
2019-05-01T06:06:24.477Z,11.40
2019-05-01T06:07:08.451Z,11.42
2019-05-01T06:08:05.222Z,11.41
2019-05-01T06:08:44.035Z,11.34
2019-05-01T06:09:24.652Z,11.44
2019-05-01T06:10:10.653Z,11.49
2019-05-01T06:11:10.362Z,11.52
2019-05-01T06:11:59.739Z,11.58
2019-05-01T06:12:46.777Z,11.61
2019-05-01T06:13:42.216Z,11.48
2019-05-01T06:14:45.344Z,11.42
2019-05-01T06:15:43.752Z,11.42
2019-05-01T06:16:31.488Z,11.58
2019-05-01T06:17:13.471Z,11.54
2019-05-01T06:17:59.173Z,11.53
2019-05-01T06:18:41.216Z,11.50
2019-05-01T06:19:51.094Z,11.55
2019-05-01T06:20:45.571Z,11.58
2019-05-01T06:21:34.771Z,11.70
2019-05-01T06:22:28.904Z,11.73
2019-05-01T06:23:24.002Z,11.71
2019-05-01T06:24:08.459Z,11.75
2019-05-01T06:24:46.404Z,11.76
2019-05-01T06:25:27.462Z,11.76
2019-05-01T06:26:22.739Z,11.90
2019-05-01T06:26:58.797Z,11.87
2019-05-01T06:27:35.706Z,11.91
2019-05-01T06:28:11.903Z,12.08
2019-05-01T06:28:47.355Z,12.21
2019-05-01T06:29:23.596Z,12.19
2019-05-01T06:30:00.851Z,12.22
2019-05-01T06:30:36.926Z,12.26
2019-05-01T06:31:23.216Z,12.52
2019-05-01T06:31:58.840Z,12.61
2019-05-01T06:32:33.494Z,12.73
2019-05-01T06:33:11.287Z,12.70
2019-05-01T06:33:48.571Z,12.84
2019-05-01T06:34:28.626Z,12.78
2019-05-01T06:35:04.479Z,12.75
2019-05-01T06:35:40.461Z,12.70
2019-05-01T06:36:17.030Z,12.70
2019-05-01T06:36:52.519Z,12.68
2019-05-01T06:37:55.995Z,12.67
2019-05-01T06:38:31.620Z,12.76
2019-05-01T06:39:11.994Z,12.75
2019-05-01T06:39:48.141Z,12.79
2019-05-01T06:40:38.105Z,12.82
2019-05-01T06:41:14.931Z,12.93
2019-05-01T06:41:51.726Z,12.82
2019-05-01T06:42:27.718Z,12.82
2019-05-01T06:43:03.645Z,12.80
2019-05-01T06:44:07.387Z,12.88
2019-05-01T06:45:01.775Z,13.13
2019-05-01T06:45:40.486Z,13.07
2019-05-01T06:46:31.451Z,12.93
2019-05-01T06:47:18.738Z,12.80
2019-05-01T06:48:02.093Z,12.73
2019-05-01T06:48:39.015Z,12.62
2019-05-01T06:49:31.018Z,12.71
2019-05-01T06:50:24.747Z,12.77
2019-05-01T06:51:19.508Z,12.87
2019-05-01T06:51:56.626Z,12.80
2019-05-01T06:52:34.454Z,12.85
2019-05-01T06:53:10.234Z,12.86
2019-05-01T06:53:46.508Z,12.85
2019-05-01T06:54:24.070Z,12.86
2019-05-01T06:55:00.678Z,12.86
2019-05-01T06:55:37.078Z,12.93
2019-05-01T06:56:12.862Z,12.97
2019-05-01T06:56:49.922Z,12.92
2019-05-01T06:57:27.276Z,12.84
2019-05-01T06:58:03.346Z,12.80
2019-05-01T06:58:39.251Z,12.90
2019-05-01T06:59:17.215Z,12.92
2019-05-01T06:59:52.922Z,12.99
2019-05-01T07:00:28.733Z,12.93
2019-05-01T07:01:04.228Z,12.94
2019-05-01T07:01:40.554Z,13.00
2019-05-01T07:02:18.188Z,13.07
2019-05-01T07:02:56.156Z,13.10
2019-05-01T07:03:31.702Z,13.06
2019-05-01T07:04:07.852Z,13.22
2019-05-01T07:04:44.534Z,13.25
2019-05-01T07:05:23.266Z,13.18
2019-05-01T07:05:58.916Z,13.23
2019-05-01T07:06:35.083Z,13.21
2019-05-01T07:07:24.692Z,13.22
2019-05-01T07:07:53.267Z,13.24
2019-05-01T07:08:29.464Z,13.27
2019-05-01T07:09:07.020Z,13.25
2019-05-01T07:09:49.361Z,13.32
2019-05-01T07:10:30.816Z,13.41
2019-05-01T07:11:00.272Z,13.41
2019-05-01T07:11:36.438Z,13.44
2019-05-01T07:12:18.394Z,13.50
2019-05-01T07:12:54.509Z,13.58
2019-05-01T07:13:35.540Z,13.76
2019-05-01T07:14:11.153Z,13.70
2019-05-01T07:14:50.838Z,13.69
2019-05-01T07:15:26.721Z,13.79
2019-05-01T07:16:03.275Z,13.79
2019-05-01T07:16:39.363Z,13.70
2019-05-01T07:17:16.372Z,13.70
2019-05-01T07:17:52.263Z,13.75
2019-05-01T07:18:29.227Z,13.75
2019-05-01T07:19:06.914Z,13.73
2019-05-01T07:20:02.664Z,13.70
2019-05-01T07:20:53.190Z,13.71
2019-05-01T07:21:32.655Z,13.76
2019-05-01T07:22:07.470Z,13.72
2019-05-01T07:22:44.202Z,13.68
2019-05-01T07:23:20.556Z,13.65
2019-05-01T07:23:56.905Z,13.60
2019-05-01T07:24:32.567Z,13.63
2019-05-01T07:25:09.432Z,13.63
2019-05-01T07:25:46.036Z,13.57
2019-05-01T07:26:22.890Z,13.57
2019-05-01T07:26:59.845Z,13.64
2019-05-01T07:27:35.940Z,13.82
2019-05-01T07:28:11.998Z,13.78
2019-05-01T07:28:49.113Z,13.72
2019-05-01T07:29:26.327Z,13.84
2019-05-01T07:30:11.424Z,13.78
2019-05-01T07:31:05.264Z,13.76
2019-05-01T07:31:41.074Z,13.76
2019-05-01T07:32:17.535Z,13.75
2019-05-01T07:32:54.400Z,13.59
2019-05-01T07:33:31.633Z,13.54
2019-05-01T07:34:16.376Z,13.54
2019-05-01T07:34:48.770Z,13.59
2019-05-01T07:35:23.119Z,13.59
2019-05-01T07:35:59.646Z,13.65
2019-05-01T07:36:35.769Z,13.69
2019-05-01T07:37:12.134Z,13.78
2019-05-01T07:37:48.040Z,13.85
2019-05-01T07:38:24.536Z,13.63
2019-05-01T07:39:00.362Z,13.54
2019-05-01T07:39:37.235Z,13.53
2019-05-01T07:40:13.712Z,13.62
2019-05-01T07:40:50.303Z,13.56
2019-05-01T07:41:27.109Z,13.65
2019-05-01T07:42:21.541Z,13.63
2019-05-01T07:43:02.691Z,13.79
2019-05-01T07:44:01.016Z,13.86
2019-05-01T07:44:42.905Z,13.94
2019-05-01T07:45:39.033Z,14.00
2019-05-01T07:46:24.626Z,14.11
2019-05-01T07:47:10.665Z,13.94
2019-05-01T07:47:46.154Z,13.98
2019-05-01T07:48:36.127Z,13.94
2019-05-01T07:49:13.133Z,13.89
2019-05-01T07:49:54.633Z,13.93
2019-05-01T07:50:32.646Z,13.99
2019-05-01T07:51:09.236Z,14.00
2019-05-01T07:51:52.906Z,14.03
2019-05-01T07:52:29.401Z,14.16
2019-05-01T07:53:05.658Z,14.32
2019-05-01T07:53:42.718Z,14.44
2019-05-01T07:54:20.332Z,14.50
2019-05-01T07:54:57.452Z,14.57
2019-05-01T07:55:37.017Z,14.59
2019-05-01T07:56:13.451Z,14.69
2019-05-01T07:56:50.019Z,14.56
2019-05-01T07:57:26.479Z,14.50
2019-05-01T07:58:02.802Z,14.48
2019-05-01T07:58:39.731Z,14.45
2019-05-01T07:59:17.038Z,14.45
2019-05-01T07:59:53.581Z,14.48
2019-05-01T08:00:41.461Z,14.56
2019-05-01T08:01:40.097Z,14.57
2019-05-01T08:02:16.840Z,14.68
2019-05-01T08:02:53.217Z,14.56
2019-05-01T08:03:29.068Z,14.49
2019-05-01T08:04:04.582Z,14.49
2019-05-01T08:04:40.677Z,14.35
2019-05-01T08:05:17.065Z,14.32
2019-05-01T08:05:52.618Z,14.41
2019-05-01T08:06:28.839Z,14.60
2019-05-01T08:07:05.321Z,14.74
2019-05-01T08:07:40.785Z,14.82
2019-05-01T08:08:17.527Z,14.86
2019-05-01T08:08:53.436Z,14.89
2019-05-01T08:09:30.857Z,14.93
2019-05-01T08:10:07.899Z,14.97
2019-05-01T08:10:44.070Z,14.94
2019-05-01T08:11:19.938Z,14.96
2019-05-01T08:11:55.585Z,14.91
2019-05-01T08:12:31.462Z,14.83
2019-05-01T08:13:06.935Z,14.84
2019-05-01T08:13:42.998Z,14.91
2019-05-01T08:14:18.720Z,14.96
2019-05-01T08:14:54.523Z,14.89
2019-05-01T08:15:32.493Z,14.83
2019-05-01T08:16:08.777Z,14.85
2019-05-01T08:16:44.385Z,14.84
2019-05-01T08:17:22.123Z,14.83
2019-05-01T08:18:11.802Z,14.81
2019-05-01T08:18:59.000Z,14.63
2019-05-01T08:20:01.238Z,14.74
2019-05-01T08:20:41.060Z,14.84
2019-05-01T08:21:34.673Z,14.76
2019-05-01T08:22:13.837Z,14.75
2019-05-01T08:22:49.716Z,14.74
2019-05-01T08:23:25.595Z,14.74
2019-05-01T08:24:02.082Z,14.81
2019-05-01T08:24:37.502Z,14.89
2019-05-01T08:25:13.568Z,14.96
2019-05-01T08:25:50.366Z,15.07
2019-05-01T08:26:26.528Z,15.13
2019-05-01T08:27:02.582Z,15.20
2019-05-01T08:27:51.057Z,15.14